Time;durP1;ratioP1;P1;durP2;ratioP2;P2;SDS_P1;SDS_P2;PMS_P1;PMS_P2;Temp;Humidity;BMP_temperature;BMP_pressure;BME280_temperature;BME280_humidity;BME280_pressure;Samples;Min_cycle;Max_cycle;Signal;HPM_P1;HPM_P2
2022/07/03 00:02:11;;;;;;;;;;;;;;;;;;4994947;28;19933;-77
2022/07/03 00:04:37;;;;;;;;;;;;;;;;;;4994773;28;19925;-77
2022/07/03 00:07:04;;;;;;;;;;;;;;;;;;4995484;28;19932;-76
2022/07/03 00:09:31;;;;;;;;;;;;;;;;;;4995063;28;19936;-77
2022/07/03 00:12:01;;;;;;;;;;;;;;;;;;4995375;28;19926;-77
2022/07/03 00:14:27;;;;;;;;;;;;;;;;;;4995884;28;20012;-75
2022/07/03 00:16:53;;;;;;;;;;;;;;;;;;4995595;28;19926;-76
2022/07/03 00:19:20;;;;;;;;;;;;;;;;;;4996067;28;19932;-76
2022/07/03 00:21:49;;;;;;;;;;;;;;;;;;4997829;28;20012;-78
2022/07/03 00:24:19;;;;;;;;;;;;;;;;;;4997067;28;19926;-77
2022/07/03 00:26:50;;;;;;;;;;;;;;;;;;4996605;28;19926;-76
2022/07/03 00:29:18;;;;;;;;;;;;;;;;;;4996461;28;19925;-77
2022/07/03 00:31:44;;;;;;;;;;;;;;;;;;4994609;28;19926;-77
2022/07/03 00:34:12;;;;;;;;;;;;;;;;;;4994795;28;20025;-78
2022/07/03 00:36:39;;;;;;;;;;;;;;;;;;4995064;28;20203;-78
2022/07/03 00:39:05;;;;;;;;;;;;;;;;;;4994951;28;19926;-76
2022/07/03 00:41:33;;;;;;;;;;;;;;;;;;4994214;28;19932;-76
2022/07/03 00:44:01;;;;;;;;;;;;;;;;;;4994735;28;19937;-77
2022/07/03 00:46:28;;;;;;;;;;;;;;;;;;4994538;28;19926;-77
2022/07/03 00:48:55;;;;;;;;;;;;;;;;;;4994847;28;20008;-77
2022/07/03 00:51:23;;;;;;;;;;;;;;;;;;4994509;28;19965;-77
2022/07/03 00:53:51;;;;;;;;;;;;;;;;;;4994604;28;19937;-77
2022/07/03 00:56:20;;;;;;;;;;;;;;;;;;4994361;28;19932;-77
2022/07/03 00:58:46;;;;;;;;;;;;;;;;;;4998223;28;19926;-77
2022/07/03 01:01:17;;;;;;;;;;;;;;;;;;4999566;28;20012;-78
2022/07/03 01:03:44;;;;;;;;;;;;;;;;;;4998128;28;19926;-79
2022/07/03 01:06:12;;;;;;;;;;;;;;;;;;4998395;28;20027;-78
2022/07/03 01:08:43;;;;;;;;;;;;;;;;;;4998195;28;19937;-77
2022/07/03 01:11:18;;;;;;;;;;;;;;;;;;5001031;28;20688;-79
2022/07/03 01:13:50;;;;;;;;;;;;;;;;;;5001869;28;19989;-77
2022/07/03 01:16:22;;;;;;;;;;;;;;;;;;5000282;28;20313;-78
2022/07/03 01:18:50;;;;;;;;;;;;;;;;;;4994011;28;19932;-78
2022/07/03 01:21:20;;;;;;;;;;;;;;;;;;4993374;28;19926;-79
2022/07/03 01:23:58;;;;;;;;;;;;;;;;;;4998683;28;19933;-77
2022/07/03 01:26:28;;;;;;;;;;;;;;;;;;4993555;28;19925;-78
2022/07/03 01:28:55;;;;;;;;;;;;;;;;;;4993573;28;20381;-78
2022/07/03 01:31:22;;;;;;;;;;;;;;;;;;4993235;28;19932;-77
2022/07/03 01:33:51;;;;;;;;;;;;;;;;;;4993498;28;19933;-78
2022/07/03 01:36:18;;;;;;;;;;;;;;;;;;4993214;28;20367;-77
2022/07/03 01:38:46;;;;;;;;;;;;;;;;;;4994657;28;20009;-78
2022/07/03 01:41:13;;;;;;;;;;;;;;;;;;4993831;28;20108;-77
2022/07/03 01:43:45;;;;;;;;;;;;;;;;;;4993911;28;20454;-77
2022/07/03 01:46:12;;;;;;;;;;;;;;;;;;4993249;28;19933;-77
2022/07/03 01:48:42;;;;;;;;;;;;;;;;;;4993474;28;19925;-77
2022/07/03 01:51:09;;;;;;;;;;;;;;;;;;4992990;28;19932;-77
2022/07/03 01:53:37;;;;;;;;;;;;;;;;;;4993421;28;19932;-78
2022/07/03 01:56:04;;;;;;;;;;;;;;;;;;4993052;28;20369;-77
2022/07/03 01:58:30;;;;;;;;;;;;;;;;;;4993886;28;20432;-78
2022/07/03 02:01:02;;;;;;;;;;;;;;;;;;4995077;28;19932;-78
2022/07/03 02:03:30;;;;;;;;;;;;;;;;;;4995005;28;19926;-78
2022/07/03 02:06:02;;;;;;;;;;;;;;;;;;4995469;28;19930;-78
2022/07/03 02:08:34;;;;;;;;;;;;;;;;;;4995781;28;19932;-77
2022/07/03 02:11:09;;;;;;;;;;;;;;;;;;4995246;28;20336;-77
2022/07/03 02:13:39;;;;;;;;;;;;;;;;;;4995511;28;19973;-77
2022/07/03 02:16:08;;;;;;;;;;;;;;;;;;4995404;28;20029;-78
2022/07/03 02:18:36;;;;;;;;;;;;;;;;;;5004909;28;19985;-77
2022/07/03 02:21:04;;;;;;;;;;;;;;;;;;5006195;28;20029;-78
2022/07/03 02:23:31;;;;;;;;;;;;;;;;;;5006933;28;19937;-78
2022/07/03 02:25:59;;;;;;;;;;;;;;;;;;5001592;28;19932;-78
2022/07/03 02:28:29;;;;;;;;;;;;;;;;;;4999447;28;19932;-78
2022/07/03 02:30:58;;;;;;;;;;;;;;;;;;5001767;28;20369;-78
2022/07/03 02:33:27;;;;;;;;;;;;;;;;;;5002466;28;20415;-78
2022/07/03 02:35:55;;;;;;;;;;;;;;;;;;5001936;28;20421;-78
2022/07/03 02:38:21;;;;;;;;;;;;;;;;;;5002003;28;19940;-78
2022/07/03 02:40:51;;;;;;;;;;;;;;;;;;5001144;28;19926;-78
2022/07/03 02:43:20;;;;;;;;;;;;;;;;;;5001271;28;19926;-78
2022/07/03 02:45:51;;;;;;;;;;;;;;;;;;5001707;28;19926;-78
2022/07/03 02:48:19;;;;;;;;;;;;;;;;;;5002083;28;20296;-78
2022/07/03 02:50:51;;;;;;;;;;;;;;;;;;5001463;28;19933;-79
2022/07/03 02:53:22;;;;;;;;;;;;;;;;;;5004711;28;19926;-78
2022/07/03 02:55:49;;;;;;;;;;;;;;;;;;5007403;28;20385;-78
2022/07/03 02:58:27;;;;;;;;;;;;;;;;;;5005016;28;19926;-78
2022/07/03 03:00:58;;;;;;;;;;;;;;;;;;5000047;28;20013;-78
2022/07/03 03:03:27;;;;;;;;;;;;;;;;;;5013853;23;20445;-77
2022/07/03 03:05:56;;;;;;;;;;;;;;;;;;5018747;28;19925;-76
2022/07/03 03:08:25;;;;;;;;;;;;;;;;;;5018717;28;19925;-76
2022/07/03 03:10:51;;;;;;;;;;;;;;;;;;5018545;28;19925;-76
2022/07/03 03:13:19;;;;;;;;;;;;;;;;;;5018577;28;19933;-76
2022/07/03 03:15:52;;;;;;;;;;;;;;;;;;5018603;28;19925;-76
2022/07/03 03:18:22;;;;;;;;;;;;;;;;;;5018933;28;20475;-77
2022/07/03 03:20:49;;;;;;;;;;;;;;;;;;5018162;28;20415;-76
2022/07/03 03:23:25;;;;;;;;;;;;;;;;;;5018589;28;19938;-76
2022/07/03 03:25:51;;;;;;;;;;;;;;;;;;5018535;28;19926;-76
2022/07/03 03:28:18;;;;;;;;;;;;;;;;;;5018678;28;19926;-76
2022/07/03 03:30:44;;;;;;;;;;;;;;;;;;5018271;28;19932;-76
2022/07/03 03:33:11;;;;;;;;;;;;;;;;;;5018665;28;20005;-76
2022/07/03 03:35:38;;;;;;;;;;;;;;;;;;5018454;28;19925;-77
2022/07/03 03:38:04;;;;;;;;;;;;;;;;;;5018304;28;19931;-77
2022/07/03 03:40:33;;;;;;;;;;;;;;;;;;5014711;28;19925;-78
2022/07/03 03:43:00;;;;;;;;;;;;;;;;;;5015291;28;20312;-75
2022/07/03 03:45:26;;;;;;;;;;;;;;;;;;5014959;28;19929;-76
2022/07/03 03:47:54;;;;;;;;;;;;;;;;;;5015297;28;19925;-75
2022/07/03 03:50:21;;;;;;;;;;;;;;;;;;5014663;28;20009;-75
2022/07/03 03:52:47;;;;;;;;;;;;;;;;;;5015164;28;19979;-75
2022/07/03 03:55:14;;;;;;;;;;;;;;;;;;5014899;28;20544;-75
2022/07/03 03:57:41;;;;;;;;;;;;;;;;;;5015173;28;19932;-77
2022/07/03 04:00:08;;;;;;;;;;;;;;;;;;5014991;28;20017;-75
2022/07/03 04:02:35;;;;;;;;;;;;;;;;;;5015036;28;19925;-76
2022/07/03 04:05:01;;;;;;;;;;;;;;;;;;5014679;28;20012;-75
2022/07/03 04:07:28;;;;;;;;;;;;;;;;;;5014903;28;20108;-76
2022/07/03 04:09:54;;;;;;;;;;;;;;;;;;5014753;28;19925;-76
2022/07/03 04:12:21;;;;;;;;;;;;;;;;;;5014713;28;20012;-77
2022/07/03 04:14:48;;;;;;;;;;;;;;;;;;5014547;28;20021;-76
2022/07/03 04:17:15;;;;;;;;;;;;;;;;;;5014697;28;19926;-75
2022/07/03 04:19:41;;;;;;;;;;;;;;;;;;5014504;28;20009;-77
2022/07/03 04:22:09;;;;;;;;;;;;;;;;;;5014441;28;19932;-76
2022/07/03 04:24:35;;;;;;;;;;;;;;;;;;5014803;28;20373;-77
2022/07/03 04:27:02;;;;;;;;;;;;;;;;;;5014477;28;19930;-76
2022/07/03 04:29:28;;;;;;;;;;;;;;;;;;5014353;28;20011;-77
2022/07/03 04:31:56;;;;;;;;;;;;;;;;;;5014565;28;19926;-76
2022/07/03 04:34:22;;;;;;;;;;;;;;;;;;5014009;28;19925;-75
2022/07/03 04:36:49;;;;;;;;;;;;;;;;;;5014794;28;20036;-76
2022/07/03 04:39:15;;;;;;;;;;;;;;;;;;5014160;28;19957;-76
2022/07/03 04:41:42;;;;;;;;;;;;;;;;;;5014373;28;20097;-77
2022/07/03 04:44:08;;;;;;;;;;;;;;;;;;5013808;28;20020;-75
2022/07/03 04:46:35;;;;;;;;;;;;;;;;;;5014161;28;20380;-74
2022/07/03 04:49:03;;;;;;;;;;;;;;;;;;5014042;28;19929;-75
2022/07/03 04:51:29;;;;;;;;;;;;;;;;;;5013362;28;19925;-76
2022/07/03 04:53:56;;;;;;;;;;;;;;;;;;5013820;28;20303;-76
2022/07/03 04:56:22;;;;;;;;;;;;;;;;;;5014120;28;20016;-76
2022/07/03 04:58:48;;;;;;;;;;;;;;;;;;5013940;28;20023;-75
2022/07/03 05:01:15;;;;;;;;;;;;;;;;;;5013595;28;19926;-76
2022/07/03 05:03:41;;;;;;;;;;;;;;;;;;5013718;28;19932;-76
2022/07/03 05:06:09;;;;;;;;;;;;;;;;;;5013548;28;20276;-76
2022/07/03 05:08:35;;;;;;;;;;;;;;;;;;5013527;28;20447;-76
2022/07/03 05:11:02;;;;;;;;;;;;;;;;;;5013173;28;19999;-76
2022/07/03 05:13:28;;;;;;;;;;;;;;;;;;5013556;28;20013;-76
2022/07/03 05:15:55;;;;;;;;;;;;;;;;;;5013725;28;19969;-76
2022/07/03 05:18:21;;;;;;;;;;;;;;;;;;5013625;28;20007;-76
2022/07/03 05:20:48;;;;;;;;;;;;;;;;;;5013045;28;19925;-76
2022/07/03 05:23:16;;;;;;;;;;;;;;;;;;5013433;28;19925;-75
2022/07/03 05:25:42;;;;;;;;;;;;;;;;;;5013055;28;19926;-76
2022/07/03 05:28:09;;;;;;;;;;;;;;;;;;5012920;28;19925;-76
2022/07/03 05:30:35;;;;;;;;;;;;;;;;;;5013218;28;19960;-76
2022/07/03 05:33:02;;;;;;;;;;;;;;;;;;5013045;28;20024;-77
2022/07/03 05:35:28;;;;;;;;;;;;;;;;;;5013398;28;19948;-75
2022/07/03 05:37:55;;;;;;;;;;;;;;;;;;5012888;28;20016;-75
2022/07/03 05:40:22;;;;;;;;;;;;;;;;;;5012710;28;20016;-77
2022/07/03 05:42:49;;;;;;;;;;;;;;;;;;5012711;28;19947;-77
2022/07/03 05:45:15;;;;;;;;;;;;;;;;;;5012290;28;19932;-75
2022/07/03 05:47:42;;;;;;;;;;;;;;;;;;5013109;28;20016;-76
2022/07/03 05:50:09;;;;;;;;;;;;;;;;;;5012432;28;19932;-75
2022/07/03 05:52:35;;;;;;;;;;;;;;;;;;5013067;28;20287;-76
2022/07/03 05:55:02;;;;;;;;;;;;;;;;;;5012484;28;20008;-76
2022/07/03 05:57:29;;;;;;;;;;;;;;;;;;5012643;28;20016;-76
2022/07/03 05:59:56;;;;;;;;;;;;;;;;;;5012415;28;19932;-76
2022/07/03 06:02:22;;;;;;;;;;;;;;;;;;5012244;28;20392;-75
2022/07/03 06:04:49;;;;;;;;;;;;;;;;;;5012102;28;19925;-77
2022/07/03 06:07:16;;;;;;;;;;;;;;;;;;5012602;28;19957;-76
2022/07/03 06:09:43;;;;;;;;;;;;;;;;;;5012369;28;19969;-76
2022/07/03 06:12:09;;;;;;;;;;;;;;;;;;5013561;28;20012;-76
2022/07/03 06:14:37;;;;;;;;;;;;;;;;;;5012465;28;19927;-76
2022/07/03 06:17:03;;;;;;;;;;;;;;;;;;5012657;28;20381;-75
2022/07/03 06:19:30;;;;;;;;;;;;;;;;;;5012432;28;19925;-76
2022/07/03 06:21:56;;;;;;;;;;;;;;;;;;5012812;28;19925;-76
2022/07/03 06:24:23;;;;;;;;;;;;;;;;;;5012225;28;20436;-74
2022/07/03 06:26:49;;;;;;;;;;;;;;;;;;5012760;28;19925;-75
2022/07/03 06:29:16;;;;;;;;;;;;;;;;;;5012136;28;20028;-78
2022/07/03 06:31:44;;;;;;;;;;;;;;;;;;5014356;28;20024;-79
2022/07/03 06:34:11;;;;;;;;;;;;;;;;;;5014608;28;19977;-76
2022/07/03 06:36:37;;;;;;;;;;;;;;;;;;5012656;28;19925;-76
2022/07/03 06:39:04;;;;;;;;;;;;;;;;;;5012353;28;19926;-76
2022/07/03 06:41:30;;;;;;;;;;;;;;;;;;5012263;28;20021;-77
2022/07/03 06:43:56;;;;;;;;;;;;;;;;;;5012978;28;19952;-76
2022/07/03 06:46:23;;;;;;;;;;;;;;;;;;5015422;28;19936;-77
2022/07/03 06:48:51;;;;;;;;;;;;;;;;;;5012793;28;20024;-76
2022/07/03 06:51:17;;;;;;;;;;;;;;;;;;5011663;28;20260;-75
2022/07/03 06:53:43;;;;;;;;;;;;;;;;;;5012207;28;19933;-76
2022/07/03 06:56:10;;;;;;;;;;;;;;;;;;5013341;28;19925;-78
2022/07/03 06:58:37;;;;;;;;;;;;;;;;;;5015954;28;20611;-78
2022/07/03 07:01:03;;;;;;;;;;;;;;;;;;5015229;28;19925;-78
2022/07/03 07:03:29;;;;;;;;;;;;;;;;;;5015332;28;20008;-78
2022/07/03 07:05:58;;;;;;;;;;;;;;;;;;5014630;28;19955;-76
2022/07/03 07:08:24;;;;;;;;;;;;;;;;;;5012720;28;19932;-76
2022/07/03 07:10:50;;;;;;;;;;;;;;;;;;5013989;28;20012;-76
2022/07/03 07:13:17;;;;;;;;;;;;;;;;;;5014717;28;19976;-77
2022/07/03 07:15:43;;;;;;;;;;;;;;;;;;5016115;28;20432;-76
2022/07/03 07:18:10;;;;;;;;;;;;;;;;;;5016523;28;20023;-77
2022/07/03 07:20:36;;;;;;;;;;;;;;;;;;5018291;28;20549;-78
2022/07/03 07:23:04;;;;;;;;;;;;;;;;;;5018935;28;19977;-77
2022/07/03 07:25:30;;;;;;;;;;;;;;;;;;5019009;28;20004;-77
2022/07/03 07:27:57;;;;;;;;;;;;;;;;;;5018982;28;19932;-78
2022/07/03 07:30:23;;;;;;;;;;;;;;;;;;5018424;28;20448;-76
2022/07/03 07:32:49;;;;;;;;;;;;;;;;;;5026321;28;20303;-77
2022/07/03 07:35:16;;;;;;;;;;;;;;;;;;5018645;28;19929;-78
2022/07/03 07:37:44;;;;;;;;;;;;;;;;;;5018242;28;20028;-78
2022/07/03 07:40:12;;;;;;;;;;;;;;;;;;5017478;28;20397;-77
2022/07/03 07:42:39;;;;;;;;;;;;;;;;;;5015254;28;20542;-77
2022/07/03 07:45:05;;;;;;;;;;;;;;;;;;5015152;28;20269;-76
2022/07/03 07:47:32;;;;;;;;;;;;;;;;;;5015510;28;20008;-75
2022/07/03 07:50:00;;;;;;;;;;;;;;;;;;5014963;28;20012;-75
2022/07/03 07:52:26;;;;;;;;;;;;;;;;;;5015759;28;19932;-75
2022/07/03 07:54:53;;;;;;;;;;;;;;;;;;5015216;28;19926;-75
2022/07/03 07:57:20;;;;;;;;;;;;;;;;;;5015336;28;19925;-76
2022/07/03 07:59:47;;;;;;;;;;;;;;;;;;5015969;28;20311;-77
2022/07/03 08:07:41;;;;;;;;;;;;;;;;;;5015596;28;20024;-77
2022/07/03 08:10:08;;;;;;;;;;;;;;;;;;5014621;28;19925;-77
2022/07/03 08:12:36;;;;;;;;;;;;;;;;;;5014725;28;20060;-75
2022/07/03 08:15:03;;;;;;;;;;;;;;;;;;5015080;28;19925;-76
2022/07/03 08:17:29;;;;;;;;;;;;;;;;;;5015113;28;20429;-76
2022/07/03 08:19:59;;;;;;;;;;;;;;;;;;5014741;28;20032;-78
2022/07/03 08:22:25;;;;;;;;;;;;;;;;;;5015676;28;20404;-76
2022/07/03 08:24:52;;;;;;;;;;;;;;;;;;5015021;28;19976;-78
2022/07/03 08:27:19;;;;;;;;;;;;;;;;;;5014483;28;20016;-77
2022/07/03 08:29:47;;;;;;;;;;;;;;;;;;5014806;28;19980;-77
2022/07/03 08:32:13;;;;;;;;;;;;;;;;;;5014549;28;20368;-76
2022/07/03 08:34:39;;;;;;;;;;;;;;;;;;5017734;28;19925;-77
2022/07/03 08:37:06;;;;;;;;;;;;;;;;;;5017647;28;19973;-78
2022/07/03 08:39:32;;;;;;;;;;;;;;;;;;5014476;28;19964;-76
2022/07/03 08:41:59;;;;;;;;;;;;;;;;;;5014421;28;20463;-76
2022/07/03 08:44:26;;;;;;;;;;;;;;;;;;5015162;28;19926;-78
2022/07/03 08:46:54;;;;;;;;;;;;;;;;;;5016000;28;20028;-76
2022/07/03 08:49:21;;;;;;;;;;;;;;;;;;5016952;28;19955;-77
2022/07/03 08:51:48;;;;;;;;;;;;;;;;;;5017414;28;20410;-75
2022/07/03 08:54:14;;;;;;;;;;;;;;;;;;5014795;28;20025;-75
2022/07/03 08:56:41;;;;;;;;;;;;;;;;;;5015235;28;19936;-76
2022/07/03 08:59:08;;;;;;;;;;;;;;;;;;5014312;28;20388;-76
2022/07/03 09:01:39;;;;;;;;;;;;;;;;;;5014311;28;19948;-76
2022/07/03 09:04:14;;;;;;;;;;;;;;;;;;5014532;28;20012;-76
2022/07/03 09:06:41;;;;;;;;;;;;;;;;;;5015624;28;19959;-77
2022/07/03 09:09:08;;;;;;;;;;;;;;;;;;5017004;28;19979;-77
2022/07/03 09:11:35;;;;;;;;;;;;;;;;;;5016189;28;19933;-77
2022/07/03 09:14:02;;;;;;;;;;;;;;;;;;5017132;28;19956;-78
2022/07/03 09:16:28;;;;;;;;;;;;;;;;;;5017391;28;19925;-77
2022/07/03 09:18:55;;;;;;;;;;;;;;;;;;5018187;28;19931;-77
2022/07/03 09:21:24;;;;;;;;;;;;;;;;;;5015903;28;19972;-77
2022/07/03 09:23:50;;;;;;;;;;;;;;;;;;5018151;28;19926;-77
2022/07/03 09:26:18;;;;;;;;;;;;;;;;;;5017560;28;19925;-77
2022/07/03 09:28:45;;;;;;;;;;;;;;;;;;5019213;28;20452;-79
2022/07/03 09:31:13;;;;;;;;;;;;;;;;;;5018174;28;19925;-77
2022/07/03 09:33:49;;;;;;;;;;;;;;;;;;5016171;28;20019;-77
2022/07/03 09:36:15;;;;;;;;;;;;;;;;;;5015049;28;19925;-77
2022/07/03 09:38:45;;;;;;;;;;;;;;;;;;5014472;28;20335;-77
2022/07/03 09:41:12;;;;;;;;;;;;;;;;;;5014297;28;20292;-77
2022/07/03 09:43:42;;;;;;;;;;;;;;;;;;5014141;28;20004;-77
2022/07/03 09:46:09;;;;;;;;;;;;;;;;;;5015335;28;19950;-77
2022/07/03 09:48:35;;;;;;;;;;;;;;;;;;5016196;28;19925;-76
2022/07/03 09:51:12;;;;;;;;;;;;;;;;;;5017473;28;19929;-77
2022/07/03 09:53:51;;;;;;;;;;;;;;;;;;5017990;28;19993;-77
2022/07/03 09:56:18;;;;;;;;;;;;;;;;;;5020515;28;19925;-77
2022/07/03 09:59:04;;;;;;;;;;;;;;;;;;5016704;28;19953;-77
2022/07/03 10:01:31;;;;;;;;;;;;;;;;;;4997899;28;20471;-77
2022/07/03 10:04:09;;;;;;;;;;;;;;;;;;4997020;28;19926;-77
2022/07/03 10:06:46;;;;;;;;;;;;;;;;;;4996826;28;19984;-77
2022/07/03 10:09:23;;;;;;;;;;;;;;;;;;4995972;28;20277;-78
2022/07/03 10:11:50;;;;;;;;;;;;;;;;;;4996096;28;20001;-76
2022/07/03 10:14:17;;;;;;;;;;;;;;;;;;5038091;23;20449;-59
2022/07/03 10:16:44;;;;;;;;;;;;;;;;;;5020033;28;19972;-61
2022/07/03 10:19:13;;;;;;;;;;;;;;;;;;5020931;28;19976;-61
2022/07/03 10:21:39;;;;;;;;;;;;;;;;;;5020552;28;19926;-59
2022/07/03 10:24:06;;;;;;;;;;;;;;;;;;5021367;28;19987;-61
2022/07/03 10:26:34;;;;;;;;;;;;;;;;;;5021015;28;19925;-61
2022/07/03 10:29:01;;;;;;;;;;;;;;;;;;5019787;28;20371;-61
2022/07/03 10:31:28;;;;;;;;;;;;;;;;;;5014490;28;19926;-66
2022/07/03 10:33:55;;;;;;;;;;;;;;;;;;5012679;28;19926;-59
2022/07/03 10:36:22;;;;;;;;;;;;;;;;;;5013815;28;19980;-61
2022/07/03 10:38:50;;;;;;;;;;;;;;;;;;5012767;28;19984;-64
2022/07/03 10:46:50;;;;;;;;;;;;;;;;;;5013304;28;20056;-61
2022/07/03 10:49:17;;;;;;;;;;;;;;;;;;5016691;28;19965;-60
2022/07/03 10:51:54;;;;;;;;;;;;;;;;;;5023374;28;19957;-59
2022/07/03 10:54:22;;;;;;;;;;;;;;;;;;5025274;28;19949;-60
2022/07/03 10:57:07;;;;;;;;;;;;;;;;;;5024062;28;19929;-61
2022/07/03 10:59:53;;;;;;;;;;;;;;;;;;5017286;28;19931;-60
2022/07/03 11:02:21;;;;;;;;;;;;;;;;;;5004524;28;20021;-61
2022/07/03 11:05:06;;;;;;;;;;;;;;;;;;5006073;28;19926;-60
2022/07/03 11:07:33;;;;;;;;;;;;;;;;;;5004934;28;19969;-60
2022/07/03 11:10:15;;;;;;;;;;;;;;;;;;5005369;28;20394;-61
2022/07/03 11:12:54;;;;;;;;;;;;;;;;;;5003610;28;19926;-63
2022/07/03 11:15:27;;;;;;;;;;;;;;;;;;5004554;28;19926;-60
2022/07/03 11:18:14;;;;;;;;;;;;;;;;;;5005000;28;19933;-59
2022/07/03 11:20:56;;;;;;;;;;;;;;;;;;5004272;28;19974;-59
2022/07/03 11:23:29;;;;;;;;;;;;;;;;;;5005109;28;20391;-60
2022/07/03 11:25:56;;;;;;;;;;;;;;;;;;5004390;28;20013;-60
2022/07/03 11:28:44;;;;;;;;;;;;;;;;;;5003808;28;19925;-61
2022/07/03 11:31:17;;;;;;;;;;;;;;;;;;5003837;28;19941;-60
2022/07/03 11:33:45;;;;;;;;;;;;;;;;;;5003289;28;19996;-60
2022/07/03 11:36:12;;;;;;;;;;;;;;;;;;5004518;28;20378;-60
2022/07/03 11:38:39;;;;;;;;;;;;;;;;;;5003471;28;19926;-61
2022/07/03 11:41:07;;;;;;;;;;;;;;;;;;5003513;28;19957;-62
2022/07/03 11:43:34;;;;;;;;;;;;;;;;;;5004685;28;19980;-60
2022/07/03 11:46:01;;;;;;;;;;;;;;;;;;5004016;28;20387;-60
2022/07/03 11:48:28;;;;;;;;;;;;;;;;;;5003094;28;19985;-61
2022/07/03 11:51:01;;;;;;;;;;;;;;;;;;5002526;28;19926;-61
2022/07/03 11:53:29;;;;;;;;;;;;;;;;;;5002213;28;19925;-60
2022/07/03 11:55:56;;;;;;;;;;;;;;;;;;5002853;28;19926;-61
2022/07/03 11:58:23;;;;;;;;;;;;;;;;;;5001857;28;19925;-61
2022/07/03 12:00:51;;;;;;;;;;;;;;;;;;5017652;28;19939;-60
2022/07/03 12:03:27;;;;;;;;;;;;;;;;;;5022854;28;19967;-59
2022/07/03 12:05:58;;;;;;;;;;;;;;;;;;5022483;28;19926;-60
2022/07/03 12:08:27;;;;;;;;;;;;;;;;;;5022724;28;20305;-59
2022/07/03 12:10:57;;;;;;;;;;;;;;;;;;5023162;28;19925;-60
2022/07/03 12:13:24;;;;;;;;;;;;;;;;;;5023078;28;19949;-59
2022/07/03 12:15:51;;;;;;;;;;;;;;;;;;5023457;28;20318;-60
2022/07/03 12:18:17;;;;;;;;;;;;;;;;;;5022383;28;19979;-59
2022/07/03 12:20:44;;;;;;;;;;;;;;;;;;5022605;28;20015;-60
2022/07/03 12:23:10;;;;;;;;;;;;;;;;;;5022755;28;20279;-61
2022/07/03 12:25:41;;;;;;;;;;;;;;;;;;5022346;28;19925;-60
2022/07/03 12:28:09;;;;;;;;;;;;;;;;;;5022041;28;19926;-60
2022/07/03 12:30:36;;;;;;;;;;;;;;;;;;5021518;28;19972;-60
2022/07/03 12:33:03;;;;;;;;;;;;;;;;;;5020933;28;19984;-60
2022/07/03 12:35:30;;;;;;;;;;;;;;;;;;5021162;28;19930;-60
2022/07/03 12:37:57;;;;;;;;;;;;;;;;;;5021399;28;19926;-60
2022/07/03 12:40:24;;;;;;;;;;;;;;;;;;5020579;28;19926;-60
2022/07/03 12:42:52;;;;;;;;;;;;;;;;;;5021067;28;19930;-60
2022/07/03 12:45:19;;;;;;;;;;;;;;;;;;5021071;28;19926;-60
2022/07/03 12:47:46;;;;;;;;;;;;;;;;;;5020727;28;20032;-60
2022/07/03 12:50:14;;;;;;;;;;;;;;;;;;5020804;28;19972;-60
2022/07/03 12:52:49;;;;;;;;;;;;;;;;;;5020650;28;19929;-60
2022/07/03 12:55:23;;;;;;;;;;;;;;;;;;5020775;28;19976;-60
2022/07/03 13:00:45;;;;;;;;;;;;;;;;;;5020710;28;19989;-62
2022/07/03 13:03:26;;;;;;;;;;;;;;;;;;5019375;28;19929;-62
2022/07/03 13:05:52;;;;;;;;;;;;;;;;;;5018232;28;19925;-62
2022/07/03 13:08:19;;;;;;;;;;;;;;;;;;5019234;28;19930;-62
2022/07/03 13:10:54;;;;;;;;;;;;;;;;;;5018363;28;20037;-62
2022/07/03 13:13:21;;;;;;;;;;;;;;;;;;5017602;28;19930;-62
2022/07/03 13:15:49;;;;;;;;;;;;;;;;;;5017404;28;19948;-61
2022/07/03 13:18:15;;;;;;;;;;;;;;;;;;5017588;28;19972;-62
2022/07/03 13:20:42;;;;;;;;;;;;;;;;;;5015386;28;20386;-60
2022/07/03 13:23:08;;;;;;;;;;;;;;;;;;5012334;28;19929;-61
2022/07/03 13:25:38;;;;;;;;;;;;;;;;;;5012351;28;19929;-61
2022/07/03 13:28:06;;;;;;;;;;;;;;;;;;5011414;28;19929;-61
2022/07/03 13:30:32;;;;;;;;;;;;;;;;;;5011929;28;19956;-61
2022/07/03 13:33:00;;;;;;;;;;;;;;;;;;5012369;28;20020;-63
2022/07/03 13:35:27;;;;;;;;;;;;;;;;;;5009620;28;19925;-63
2022/07/03 13:37:53;;;;;;;;;;;;;;;;;;5011701;28;19929;-63
2022/07/03 13:40:20;;;;;;;;;;;;;;;;;;5011581;28;20468;-62
2022/07/03 13:42:46;;;;;;;;;;;;;;;;;;5011575;28;19972;-63
2022/07/03 13:45:13;;;;;;;;;;;;;;;;;;5011570;28;19972;-63
2022/07/03 13:47:39;;;;;;;;;;;;;;;;;;5011699;28;19925;-63
2022/07/03 13:50:08;;;;;;;;;;;;;;;;;;5011506;28;19996;-62
2022/07/03 13:52:35;;;;;;;;;;;;;;;;;;5011908;28;19933;-62
2022/07/03 13:55:02;;;;;;;;;;;;;;;;;;5011819;28;20353;-62
2022/07/03 13:57:28;;;;;;;;;;;;;;;;;;5011775;28;19930;-61
2022/07/03 13:59:55;;;;;;;;;;;;;;;;;;5011773;28;19926;-62
2022/07/03 14:02:21;;;;;;;;;;;;;;;;;;5011965;28;20349;-61
2022/07/03 14:04:48;;;;;;;;;;;;;;;;;;5011768;28;20334;-62
2022/07/03 14:07:16;;;;;;;;;;;;;;;;;;5011770;28;19980;-62
2022/07/03 14:09:42;;;;;;;;;;;;;;;;;;5011458;28;19976;-62
2022/07/03 14:12:09;;;;;;;;;;;;;;;;;;5011654;28;19925;-61
2022/07/03 14:14:36;;;;;;;;;;;;;;;;;;4947185;28;1862789;-62
2022/07/03 14:17:02;;;;;;;;;;;;;;;;;;5012331;28;19929;-62
2022/07/03 14:19:29;;;;;;;;;;;;;;;;;;5011908;28;19926;-62
2022/07/03 14:21:55;;;;;;;;;;;;;;;;;;5012219;28;19925;-62
2022/07/03 14:24:23;;;;;;;;;;;;;;;;;;5011625;28;19983;-62
2022/07/03 14:32:32;;;;;;;;;;;;;;;;;;5000260;28;19926;-61
2022/07/03 14:34:59;;;;;;;;;;;;;;;;;;5012433;28;19926;-62
2022/07/03 14:37:25;;;;;;;;;;;;;;;;;;5012276;28;19980;-62
2022/07/03 14:39:53;;;;;;;;;;;;;;;;;;5011955;28;19933;-62
2022/07/03 14:42:20;;;;;;;;;;;;;;;;;;5012019;28;19929;-62
2022/07/03 14:44:46;;;;;;;;;;;;;;;;;;5012005;28;19926;-61
2022/07/03 14:47:13;;;;;;;;;;;;;;;;;;5012401;28;19932;-62
2022/07/03 14:49:40;;;;;;;;;;;;;;;;;;5011038;28;19932;-61
2022/07/03 14:52:07;;;;;;;;;;;;;;;;;;5011523;28;20394;-62
2022/07/03 14:54:35;;;;;;;;;;;;;;;;;;5011546;28;19925;-62
2022/07/03 14:57:03;;;;;;;;;;;;;;;;;;5011724;28;19925;-62
2022/07/03 14:59:39;;;;;;;;;;;;;;;;;;5011711;28;19980;-62
2022/07/03 15:02:06;;;;;;;;;;;;;;;;;;5011542;28;19991;-63
2022/07/03 15:04:41;;;;;;;;;;;;;;;;;;5011881;28;20408;-62
2022/07/03 15:07:07;;;;;;;;;;;;;;;;;;5008978;28;20311;-62
2022/07/03 15:09:37;;;;;;;;;;;;;;;;;;5011474;28;19939;-62
2022/07/03 15:14:52;;;;;;;;;;;;;;;;;;5009460;28;20071;-62
2022/07/03 15:17:20;;;;;;;;;;;;;;;;;;5011423;28;19972;-62
2022/07/03 15:19:48;;;;;;;;;;;;;;;;;;5011038;28;20060;-62
2022/07/03 15:22:15;;;;;;;;;;;;;;;;;;5011311;28;19925;-62
2022/07/03 15:24:41;;;;;;;;;;;;;;;;;;5011261;28;20052;-62
2022/07/03 15:27:09;;;;;;;;;;;;;;;;;;5011134;28;19926;-62
2022/07/03 15:29:36;;;;;;;;;;;;;;;;;;5011064;28;20349;-62
2022/07/03 15:32:03;;;;;;;;;;;;;;;;;;5011502;28;19992;-62
2022/07/03 15:34:30;;;;;;;;;;;;;;;;;;5011268;28;19932;-62
2022/07/03 15:36:59;;;;;;;;;;;;;;;;;;5014617;28;19925;-62
2022/07/03 15:39:27;;;;;;;;;;;;;;;;;;5014633;28;19987;-62
2022/07/03 15:42:00;;;;;;;;;;;;;;;;;;5014830;28;19980;-61
2022/07/03 15:44:32;;;;;;;;;;;;;;;;;;5012247;28;20326;-62
2022/07/03 15:47:06;;;;;;;;;;;;;;;;;;5014477;28;19938;-62
2022/07/03 15:49:35;;;;;;;;;;;;;;;;;;5012451;28;20313;-62
2022/07/03 15:52:06;;;;;;;;;;;;;;;;;;5014751;28;19925;-62
2022/07/03 15:54:37;;;;;;;;;;;;;;;;;;5012482;28;19964;-62
2022/07/03 15:57:04;;;;;;;;;;;;;;;;;;5014644;28;19929;-62
2022/07/03 15:59:35;;;;;;;;;;;;;;;;;;5011845;28;19929;-62
2022/07/03 16:02:17;;;;;;;;;;;;;;;;;;5014597;28;19929;-62
2022/07/03 16:04:51;;;;;;;;;;;;;;;;;;5013933;28;20501;-62
2022/07/03 16:07:18;;;;;;;;;;;;;;;;;;5012767;28;19925;-62
2022/07/03 16:09:45;;;;;;;;;;;;;;;;;;5013855;28;19926;-62
2022/07/03 16:12:15;;;;;;;;;;;;;;;;;;5014630;28;19985;-62
2022/07/03 16:14:43;;;;;;;;;;;;;;;;;;5015101;28;19926;-62
2022/07/03 16:17:11;;;;;;;;;;;;;;;;;;5014531;28;19925;-62
2022/07/03 16:19:41;;;;;;;;;;;;;;;;;;5031802;22;20113;-77
2022/07/03 16:22:09;;;;;;;;;;;;;;;;;;4994372;28;20024;-77
2022/07/03 16:24:36;;;;;;;;;;;;;;;;;;4994430;28;19929;-77
2022/07/03 16:27:02;;;;;;;;;;;;;;;;;;4995111;28;19926;-77
2022/07/03 16:29:29;;;;;;;;;;;;;;;;;;4994741;28;19926;-77
2022/07/03 16:32:00;;;;;;;;;;;;;;;;;;4994946;28;20069;-76
2022/07/03 16:34:31;;;;;;;;;;;;;;;;;;4997963;28;19933;-82
2022/07/03 16:36:58;;;;;;;;;;;;;;;;;;5001699;28;19997;-82
2022/07/03 16:39:26;;;;;;;;;;;;;;;;;;4999709;28;20020;-82
2022/07/03 16:41:54;;;;;;;;;;;;;;;;;;5000368;28;20013;-81
2022/07/03 16:44:23;;;;;;;;;;;;;;;;;;4999771;28;20008;-81
2022/07/03 16:46:50;;;;;;;;;;;;;;;;;;4999155;28;19926;-81
2022/07/03 16:49:21;;;;;;;;;;;;;;;;;;4998992;28;20010;-82
2022/07/03 16:51:49;;;;;;;;;;;;;;;;;;4999648;28;19925;-82
2022/07/03 16:54:15;;;;;;;;;;;;;;;;;;4999686;28;19961;-81
2022/07/03 16:56:42;;;;;;;;;;;;;;;;;;4998813;28;19972;-81
2022/07/03 16:59:09;;;;;;;;;;;;;;;;;;4998599;28;19993;-81
2022/07/03 17:01:36;;;;;;;;;;;;;;;;;;4998271;28;19926;-81
2022/07/03 17:04:03;;;;;;;;;;;;;;;;;;4998801;28;20036;-81
2022/07/03 17:06:35;;;;;;;;;;;;;;;;;;4999910;28;20048;-82
2022/07/03 17:09:01;;;;;;;;;;;;;;;;;;4999343;28;19972;-82
2022/07/03 17:11:28;;;;;;;;;;;;;;;;;;4999778;28;19937;-82
2022/07/03 17:13:54;;;;;;;;;;;;;;;;;;5000212;28;19968;-81
2022/07/03 17:16:22;;;;;;;;;;;;;;;;;;5000137;28;19926;-81